sensor_id;sensor_type;location;lat;lon;timestamp;P1;durP1;ratioP1;P2;durP2;ratioP2
4986;SDS011;12674;51.500;7.552;2024-03-23T00:54:41;24.27;;;5.57;;
4986;SDS011;12674;51.500;7.552;2024-03-23T00:56:44;28.03;;;5.60;;
4986;SDS011;12674;51.500;7.552;2024-03-23T00:58:46;25.43;;;5.20;;
4986;SDS011;12674;51.500;7.552;2024-03-23T01:00:47;22.00;;;4.70;;
4986;SDS011;12674;51.500;7.552;2024-03-23T01:02:49;26.63;;;5.47;;
4986;SDS011;12674;51.500;7.552;2024-03-23T01:04:50;16.67;;;5.30;;
4986;SDS011;12674;51.500;7.552;2024-03-23T01:06:52;16.53;;;5.23;;
4986;SDS011;12674;51.500;7.552;2024-03-23T01:08:57;21.47;;;5.10;;
4986;SDS011;12674;51.500;7.552;2024-03-23T01:11:00;18.03;;;5.20;;
4986;SDS011;12674;51.500;7.552;2024-03-23T01:13:04;17.37;;;4.20;;
4986;SDS011;12674;51.500;7.552;2024-03-23T01:15:05;26.50;;;4.70;;
4986;SDS011;12674;51.500;7.552;2024-03-23T01:17:08;25.77;;;5.97;;
4986;SDS011;12674;51.500;7.552;2024-03-23T01:19:09;18.03;;;4.43;;
4986;SDS011;12674;51.500;7.552;2024-03-23T01:21:12;20.03;;;5.17;;
4986;SDS011;12674;51.500;7.552;2024-03-23T01:23:14;16.30;;;3.57;;
4986;SDS011;12674;51.500;7.552;2024-03-23T01:25:16;18.10;;;4.40;;
4986;SDS011;12674;51.500;7.552;2024-03-23T01:27:17;16.20;;;4.47;;
4986;SDS011;12674;51.500;7.552;2024-03-23T01:29:21;22.60;;;4.83;;
4986;SDS011;12674;51.500;7.552;2024-03-23T01:31:22;19.43;;;5.30;;
4986;SDS011;12674;51.500;7.552;2024-03-23T01:33:25;19.57;;;4.90;;
4986;SDS011;12674;51.500;7.552;2024-03-23T01:35:28;20.47;;;4.10;;
4986;SDS011;12674;51.500;7.552;2024-03-23T01:37:30;13.37;;;3.80;;
4986;SDS011;12674;51.500;7.552;2024-03-23T01:39:31;26.63;;;4.77;;
4986;SDS011;12674;51.500;7.552;2024-03-23T01:41:33;16.53;;;4.03;;
4986;SDS011;12674;51.500;7.552;2024-03-23T01:43:35;13.97;;;3.37;;
4986;SDS011;12674;51.500;7.552;2024-03-23T01:45:39;18.97;;;5.00;;
4986;SDS011;12674;51.500;7.552;2024-03-23T01:47:41;14.70;;;3.90;;
4986;SDS011;12674;51.500;7.552;2024-03-23T01:49:43;21.37;;;4.70;;
4986;SDS011;12674;51.500;7.552;2024-03-23T01:51:46;15.53;;;3.90;;
4986;SDS011;12674;51.500;7.552;2024-03-23T01:53:48;18.20;;;4.20;;
4986;SDS011;12674;51.500;7.552;2024-03-23T01:55:51;20.93;;;3.30;;
4986;SDS011;12674;51.500;7.552;2024-03-23T01:57:53;17.33;;;3.83;;
4986;SDS011;12674;51.500;7.552;2024-03-23T01:59:54;14.20;;;3.80;;
4986;SDS011;12674;51.500;7.552;2024-03-23T02:02:02;12.60;;;3.50;;
4986;SDS011;12674;51.500;7.552;2024-03-23T02:04:07;14.90;;;3.40;;
4986;SDS011;12674;51.500;7.552;2024-03-23T02:06:12;11.30;;;3.37;;
4986;SDS011;12674;51.500;7.552;2024-03-23T02:08:14;11.00;;;3.03;;
4986;SDS011;12674;51.500;7.552;2024-03-23T02:10:17;11.43;;;3.60;;
4986;SDS011;12674;51.500;7.552;2024-03-23T02:12:18;16.43;;;3.23;;
4986;SDS011;12674;51.500;7.552;2024-03-23T02:14:22;10.17;;;2.80;;
4986;SDS011;12674;51.500;7.552;2024-03-23T02:16:23;12.83;;;3.47;;
4986;SDS011;12674;51.500;7.552;2024-03-23T02:18:29;12.03;;;3.60;;
4986;SDS011;12674;51.500;7.552;2024-03-23T02:20:31;11.53;;;2.83;;
4986;SDS011;12674;51.500;7.552;2024-03-23T02:22:36;11.60;;;3.10;;
4986;SDS011;12674;51.500;7.552;2024-03-23T02:24:39;12.57;;;3.07;;
4986;SDS011;12674;51.500;7.552;2024-03-23T02:26:41;7.77;;;2.43;;
4986;SDS011;12674;51.500;7.552;2024-03-23T02:28:42;18.50;;;2.93;;
4986;SDS011;12674;51.500;7.552;2024-03-23T02:30:46;11.10;;;2.20;;
4986;SDS011;12674;51.500;7.552;2024-03-23T02:32:47;10.00;;;2.40;;
4986;SDS011;12674;51.500;7.552;2024-03-23T02:34:52;10.40;;;2.20;;
4986;SDS011;12674;51.500;7.552;2024-03-23T02:36:53;16.87;;;2.10;;
4986;SDS011;12674;51.500;7.552;2024-03-23T02:38:55;7.50;;;2.10;;
4986;SDS011;12674;51.500;7.552;2024-03-23T02:41:02;10.10;;;2.50;;
4986;SDS011;12674;51.500;7.552;2024-03-23T02:43:04;14.47;;;2.10;;
4986;SDS011;12674;51.500;7.552;2024-03-23T02:45:08;7.50;;;2.13;;
4986;SDS011;12674;51.500;7.552;2024-03-23T02:47:11;15.00;;;2.37;;
4986;SDS011;12674;51.500;7.552;2024-03-23T02:49:13;7.97;;;2.17;;
4986;SDS011;12674;51.500;7.552;2024-03-23T02:51:14;10.97;;;2.33;;
4986;SDS011;12674;51.500;7.552;2024-03-23T02:53:17;13.73;;;2.33;;
4986;SDS011;12674;51.500;7.552;2024-03-23T02:55:18;4.67;;;2.33;;
4986;SDS011;12674;51.500;7.552;2024-03-23T02:57:23;9.13;;;2.13;;
4986;SDS011;12674;51.500;7.552;2024-03-23T02:59:25;15.40;;;3.47;;
4986;SDS011;12674;51.500;7.552;2024-03-23T03:01:27;7.53;;;2.63;;
4986;SDS011;12674;51.500;7.552;2024-03-23T03:03:29;7.97;;;2.67;;
4986;SDS011;12674;51.500;7.552;2024-03-23T03:05:32;8.57;;;2.30;;
4986;SDS011;12674;51.500;7.552;2024-03-23T03:07:35;10.00;;;2.13;;
4986;SDS011;12674;51.500;7.552;2024-03-23T03:09:40;8.90;;;2.63;;
4986;SDS011;12674;51.500;7.552;2024-03-23T03:11:41;10.27;;;2.60;;
4986;SDS011;12674;51.500;7.552;2024-03-23T03:13:43;10.63;;;2.23;;
4986;SDS011;12674;51.500;7.552;2024-03-23T03:15:46;8.23;;;2.00;;
4986;SDS011;12674;51.500;7.552;2024-03-23T03:17:49;6.27;;;2.07;;
4986;SDS011;12674;51.500;7.552;2024-03-23T03:19:52;8.10;;;2.27;;
4986;SDS011;12674;51.500;7.552;2024-03-23T03:21:56;10.80;;;2.30;;
4986;SDS011;12674;51.500;7.552;2024-03-23T03:23:58;6.77;;;1.87;;
4986;SDS011;12674;51.500;7.552;2024-03-23T03:25:59;9.83;;;2.93;;
4986;SDS011;12674;51.500;7.552;2024-03-23T03:28:01;14.30;;;2.73;;
4986;SDS011;12674;51.500;7.552;2024-03-23T03:30:04;9.53;;;2.67;;
4986;SDS011;12674;51.500;7.552;2024-03-23T03:32:09;10.33;;;2.40;;
4986;SDS011;12674;51.500;7.552;2024-03-23T03:34:10;6.40;;;2.43;;
4986;SDS011;12674;51.500;7.552;2024-03-23T03:36:12;8.87;;;2.10;;
4986;SDS011;12674;51.500;7.552;2024-03-23T03:38:13;14.03;;;2.60;;
4986;SDS011;12674;51.500;7.552;2024-03-23T03:40:15;5.23;;;1.70;;
4986;SDS011;12674;51.500;7.552;2024-03-23T03:42:16;8.43;;;1.93;;
4986;SDS011;12674;51.500;7.552;2024-03-23T03:44:18;9.23;;;1.80;;
4986;SDS011;12674;51.500;7.552;2024-03-23T03:46:21;10.33;;;1.80;;
4986;SDS011;12674;51.500;7.552;2024-03-23T03:48:23;15.57;;;3.00;;
4986;SDS011;12674;51.500;7.552;2024-03-23T03:50:24;12.80;;;2.67;;
4986;SDS011;12674;51.500;7.552;2024-03-23T03:52:26;7.83;;;2.23;;
4986;SDS011;12674;51.500;7.552;2024-03-23T03:54:28;10.23;;;2.00;;
4986;SDS011;12674;51.500;7.552;2024-03-23T03:56:33;8.50;;;2.17;;
4986;SDS011;12674;51.500;7.552;2024-03-23T03:58:35;11.23;;;2.20;;
4986;SDS011;12674;51.500;7.552;2024-03-23T04:00:38;7.00;;;1.90;;
4986;SDS011;12674;51.500;7.552;2024-03-23T04:02:41;12.73;;;3.10;;
4986;SDS011;12674;51.500;7.552;2024-03-23T04:04:43;12.53;;;2.40;;
4986;SDS011;12674;51.500;7.552;2024-03-23T04:06:44;14.87;;;2.53;;
4986;SDS011;12674;51.500;7.552;2024-03-23T04:08:46;11.20;;;2.10;;
4986;SDS011;12674;51.500;7.552;2024-03-23T04:10:47;11.00;;;3.20;;
4986;SDS011;12674;51.500;7.552;2024-03-23T04:12:48;9.20;;;2.40;;
4986;SDS011;12674;51.500;7.552;2024-03-23T04:14:51;6.80;;;2.00;;
4986;SDS011;12674;51.500;7.552;2024-03-23T04:16:52;11.30;;;2.23;;
4986;SDS011;12674;51.500;7.552;2024-03-23T04:18:55;14.23;;;2.80;;
4986;SDS011;12674;51.500;7.552;2024-03-23T04:20:56;16.03;;;2.87;;
4986;SDS011;12674;51.500;7.552;2024-03-23T04:22:58;13.13;;;2.53;;
4986;SDS011;12674;51.500;7.552;2024-03-23T04:24:59;15.20;;;2.80;;
4986;SDS011;12674;51.500;7.552;2024-03-23T04:27:03;7.97;;;2.27;;
4986;SDS011;12674;51.500;7.552;2024-03-23T04:29:05;15.17;;;2.80;;
4986;SDS011;12674;51.500;7.552;2024-03-23T04:31:06;16.00;;;2.80;;
4986;SDS011;12674;51.500;7.552;2024-03-23T04:33:07;11.73;;;2.90;;
4986;SDS011;12674;51.500;7.552;2024-03-23T04:35:11;11.17;;;2.20;;
4986;SDS011;12674;51.500;7.552;2024-03-23T04:37:12;9.97;;;2.33;;
4986;SDS011;12674;51.500;7.552;2024-03-23T04:39:14;9.60;;;2.40;;
4986;SDS011;12674;51.500;7.552;2024-03-23T04:41:16;13.87;;;2.67;;
4986;SDS011;12674;51.500;7.552;2024-03-23T04:43:18;15.60;;;2.80;;
4986;SDS011;12674;51.500;7.552;2024-03-23T04:45:20;7.93;;;2.73;;
4986;SDS011;12674;51.500;7.552;2024-03-23T04:47:23;7.07;;;2.30;;
4986;SDS011;12674;51.500;7.552;2024-03-23T04:49:26;15.03;;;2.70;;
4986;SDS011;12674;51.500;7.552;2024-03-23T04:51:34;14.63;;;2.80;;
4986;SDS011;12674;51.500;7.552;2024-03-23T04:53:37;11.87;;;2.87;;
4986;SDS011;12674;51.500;7.552;2024-03-23T04:55:39;13.70;;;3.43;;
4986;SDS011;12674;51.500;7.552;2024-03-23T04:57:41;18.37;;;3.13;;
4986;SDS011;12674;51.500;7.552;2024-03-23T04:59:42;7.63;;;2.30;;
4986;SDS011;12674;51.500;7.552;2024-03-23T05:01:44;10.63;;;2.50;;
4986;SDS011;12674;51.500;7.552;2024-03-23T05:03:45;16.23;;;4.23;;
4986;SDS011;12674;51.500;7.552;2024-03-23T05:05:47;5.50;;;1.90;;
4986;SDS011;12674;51.500;7.552;2024-03-23T05:07:49;17.73;;;3.13;;
4986;SDS011;12674;51.500;7.552;2024-03-23T05:09:51;11.07;;;2.77;;
4986;SDS011;12674;51.500;7.552;2024-03-23T05:11:53;9.47;;;2.60;;
4986;SDS011;12674;51.500;7.552;2024-03-23T05:13:55;13.80;;;2.83;;
4986;SDS011;12674;51.500;7.552;2024-03-23T05:15:56;13.93;;;3.27;;
4986;SDS011;12674;51.500;7.552;2024-03-23T05:17:58;15.60;;;2.47;;
4986;SDS011;12674;51.500;7.552;2024-03-23T05:19:59;14.33;;;3.23;;
4986;SDS011;12674;51.500;7.552;2024-03-23T05:22:01;14.03;;;2.70;;
4986;SDS011;12674;51.500;7.552;2024-03-23T05:24:03;13.80;;;2.93;;
4986;SDS011;12674;51.500;7.552;2024-03-23T05:26:06;16.97;;;3.10;;
4986;SDS011;12674;51.500;7.552;2024-03-23T05:28:07;8.90;;;2.70;;
4986;SDS011;12674;51.500;7.552;2024-03-23T05:30:09;11.80;;;3.80;;
4986;SDS011;12674;51.500;7.552;2024-03-23T05:32:11;14.63;;;2.90;;
4986;SDS011;12674;51.500;7.552;2024-03-23T05:34:13;16.60;;;3.27;;
4986;SDS011;12674;51.500;7.552;2024-03-23T05:36:14;16.77;;;2.83;;
4986;SDS011;12674;51.500;7.552;2024-03-23T05:38:16;10.93;;;2.97;;
4986;SDS011;12674;51.500;7.552;2024-03-23T05:40:18;10.53;;;3.30;;
4986;SDS011;12674;51.500;7.552;2024-03-23T05:42:23;14.03;;;3.80;;
4986;SDS011;12674;51.500;7.552;2024-03-23T05:44:24;15.60;;;4.60;;
4986;SDS011;12674;51.500;7.552;2024-03-23T05:46:26;16.17;;;3.80;;
4986;SDS011;12674;51.500;7.552;2024-03-23T05:48:27;14.47;;;3.67;;
4986;SDS011;12674;51.500;7.552;2024-03-23T05:50:30;18.63;;;3.50;;
4986;SDS011;12674;51.500;7.552;2024-03-23T05:52:31;20.83;;;5.47;;
4986;SDS011;12674;51.500;7.552;2024-03-23T05:54:33;10.17;;;3.50;;
4986;SDS011;12674;51.500;7.552;2024-03-23T05:56:36;11.50;;;3.80;;
4986;SDS011;12674;51.500;7.552;2024-03-23T05:58:37;15.33;;;4.20;;
4986;SDS011;12674;51.500;7.552;2024-03-23T06:00:39;20.97;;;4.47;;
4986;SDS011;12674;51.500;7.552;2024-03-23T06:02:40;14.10;;;3.60;;
4986;SDS011;12674;51.500;7.552;2024-03-23T06:04:42;13.67;;;4.77;;
4986;SDS011;12674;51.500;7.552;2024-03-23T06:06:43;18.43;;;5.50;;
4986;SDS011;12674;51.500;7.552;2024-03-23T06:08:47;19.63;;;4.97;;
4986;SDS011;12674;51.500;7.552;2024-03-23T06:10:48;16.97;;;5.73;;
4986;SDS011;12674;51.500;7.552;2024-03-23T06:12:52;18.63;;;6.10;;
4986;SDS011;12674;51.500;7.552;2024-03-23T06:14:53;23.00;;;6.77;;
4986;SDS011;12674;51.500;7.552;2024-03-23T06:16:55;20.90;;;7.13;;
4986;SDS011;12674;51.500;7.552;2024-03-23T06:18:56;24.27;;;6.50;;
4986;SDS011;12674;51.500;7.552;2024-03-23T06:20:59;14.93;;;6.70;;
4986;SDS011;12674;51.500;7.552;2024-03-23T06:23:00;20.23;;;7.57;;
4986;SDS011;12674;51.500;7.552;2024-03-23T06:25:01;26.00;;;7.43;;
4986;SDS011;12674;51.500;7.552;2024-03-23T06:27:03;16.53;;;6.90;;
4986;SDS011;12674;51.500;7.552;2024-03-23T06:29:06;19.03;;;7.50;;
4986;SDS011;12674;51.500;7.552;2024-03-23T06:31:08;17.83;;;7.57;;
4986;SDS011;12674;51.500;7.552;2024-03-23T06:33:09;22.60;;;7.90;;
4986;SDS011;12674;51.500;7.552;2024-03-23T06:35:11;19.93;;;9.67;;
4986;SDS011;12674;51.500;7.552;2024-03-23T06:37:12;19.27;;;9.13;;
4986;SDS011;12674;51.500;7.552;2024-03-23T06:39:14;28.77;;;10.40;;
4986;SDS011;12674;51.500;7.552;2024-03-23T06:41:15;20.53;;;11.03;;
4986;SDS011;12674;51.500;7.552;2024-03-23T06:43:17;20.87;;;11.80;;
4986;SDS011;12674;51.500;7.552;2024-03-23T06:45:20;23.83;;;12.97;;
4986;SDS011;12674;51.500;7.552;2024-03-23T06:47:23;23.93;;;12.70;;
4986;SDS011;12674;51.500;7.552;2024-03-23T06:49:26;19.17;;;11.90;;
4986;SDS011;12674;51.500;7.552;2024-03-23T06:51:27;25.00;;;12.50;;
4986;SDS011;12674;51.500;7.552;2024-03-23T06:53:29;29.33;;;12.03;;
4986;SDS011;12674;51.500;7.552;2024-03-23T06:55:31;29.17;;;12.60;;
4986;SDS011;12674;51.500;7.552;2024-03-23T06:57:32;23.47;;;13.10;;
4986;SDS011;12674;51.500;7.552;2024-03-23T06:59:34;26.03;;;13.70;;
4986;SDS011;12674;51.500;7.552;2024-03-23T07:01:36;30.77;;;13.30;;
4986;SDS011;12674;51.500;7.552;2024-03-23T07:03:39;31.47;;;13.40;;
4986;SDS011;12674;51.500;7.552;2024-03-23T07:05:40;23.87;;;13.83;;
4986;SDS011;12674;51.500;7.552;2024-03-23T07:07:42;29.03;;;13.83;;
4986;SDS011;12674;51.500;7.552;2024-03-23T07:09:43;22.23;;;12.60;;
4986;SDS011;12674;51.500;7.552;2024-03-23T07:11:45;21.23;;;12.90;;
4986;SDS011;12674;51.500;7.552;2024-03-23T07:13:49;33.70;;;14.40;;
4986;SDS011;12674;51.500;7.552;2024-03-23T07:15:51;27.37;;;14.10;;
4986;SDS011;12674;51.500;7.552;2024-03-23T07:17:54;29.13;;;14.40;;
4986;SDS011;12674;51.500;7.552;2024-03-23T07:19:56;27.90;;;14.70;;
4986;SDS011;12674;51.500;7.552;2024-03-23T07:21:57;27.27;;;15.10;;
4986;SDS011;12674;51.500;7.552;2024-03-23T07:23:59;29.70;;;15.90;;
4986;SDS011;12674;51.500;7.552;2024-03-23T07:26:00;30.23;;;14.77;;
4986;SDS011;12674;51.500;7.552;2024-03-23T07:28:04;25.80;;;14.90;;
4986;SDS011;12674;51.500;7.552;2024-03-23T07:30:06;28.30;;;15.43;;
4986;SDS011;12674;51.500;7.552;2024-03-23T07:32:09;29.50;;;15.57;;
4986;SDS011;12674;51.500;7.552;2024-03-23T07:34:14;28.27;;;15.17;;
4986;SDS011;12674;51.500;7.552;2024-03-23T07:36:16;30.50;;;16.00;;
4986;SDS011;12674;51.500;7.552;2024-03-23T07:38:17;30.20;;;15.27;;
4986;SDS011;12674;51.500;7.552;2024-03-23T07:40:19;29.20;;;14.97;;
4986;SDS011;12674;51.500;7.552;2024-03-23T07:42:20;33.03;;;14.67;;
4986;SDS011;12674;51.500;7.552;2024-03-23T07:44:22;21.43;;;13.00;;
4986;SDS011;12674;51.500;7.552;2024-03-23T07:46:23;24.77;;;13.80;;
4986;SDS011;12674;51.500;7.552;2024-03-23T07:48:26;29.53;;;13.60;;
4986;SDS011;12674;51.500;7.552;2024-03-23T07:50:30;25.67;;;12.23;;
4986;SDS011;12674;51.500;7.552;2024-03-23T07:52:32;22.30;;;10.97;;
4986;SDS011;12674;51.500;7.552;2024-03-23T07:54:33;27.27;;;12.03;;
4986;SDS011;12674;51.500;7.552;2024-03-23T07:56:35;24.27;;;11.93;;
4986;SDS011;12674;51.500;7.552;2024-03-23T07:58:36;19.43;;;11.87;;
4986;SDS011;12674;51.500;7.552;2024-03-23T08:00:38;25.77;;;10.90;;
4986;SDS011;12674;51.500;7.552;2024-03-23T08:02:39;28.97;;;12.77;;
4986;SDS011;12674;51.500;7.552;2024-03-23T08:04:41;23.37;;;11.90;;
4986;SDS011;12674;51.500;7.552;2024-03-23T08:06:44;22.83;;;11.87;;
4986;SDS011;12674;51.500;7.552;2024-03-23T08:08:47;24.17;;;11.40;;
4986;SDS011;12674;51.500;7.552;2024-03-23T08:10:49;23.03;;;10.40;;
4986;SDS011;12674;51.500;7.552;2024-03-23T08:12:50;17.13;;;9.77;;
4986;SDS011;12674;51.500;7.552;2024-03-23T08:14:52;19.53;;;9.90;;
4986;SDS011;12674;51.500;7.552;2024-03-23T08:16:54;17.83;;;9.90;;
4986;SDS011;12674;51.500;7.552;2024-03-23T08:18:56;19.33;;;9.97;;
4986;SDS011;12674;51.500;7.552;2024-03-23T08:20:57;17.65;;;7.35;;
4986;SDS011;12674;51.500;7.552;2024-03-23T08:23:00;18.77;;;8.95;;
4986;SDS011;12674;51.500;7.552;2024-03-23T08:25:01;23.33;;;8.35;;
4986;SDS011;12674;51.500;7.552;2024-03-23T08:27:04;24.77;;;9.13;;
4986;SDS011;12674;51.500;7.552;2024-03-23T08:29:05;18.70;;;8.50;;
4986;SDS011;12674;51.500;7.552;2024-03-23T08:31:08;14.50;;;8.00;;
4986;SDS011;12674;51.500;7.552;2024-03-23T08:33:09;21.65;;;8.35;;
4986;SDS011;12674;51.500;7.552;2024-03-23T08:35:11;17.13;;;8.30;;
4986;SDS011;12674;51.500;7.552;2024-03-23T08:37:12;23.67;;;8.88;;
4986;SDS011;12674;51.500;7.552;2024-03-23T08:39:16;19.05;;;8.18;;
4986;SDS011;12674;51.500;7.552;2024-03-23T08:41:17;19.95;;;7.75;;
4986;SDS011;12674;51.500;7.552;2024-03-23T08:43:19;21.42;;;7.22;;
4986;SDS011;12674;51.500;7.552;2024-03-23T08:45:20;17.25;;;6.55;;
4986;SDS011;12674;51.500;7.552;2024-03-23T08:47:22;18.00;;;7.28;;
4986;SDS011;12674;51.500;7.552;2024-03-23T08:49:23;20.60;;;6.07;;
4986;SDS011;12674;51.500;7.552;2024-03-23T08:51:25;16.70;;;5.65;;
4986;SDS011;12674;51.500;7.552;2024-03-23T08:53:27;17.93;;;6.80;;
4986;SDS011;12674;51.500;7.552;2024-03-23T08:55:31;14.47;;;5.70;;
4986;SDS011;12674;51.500;7.552;2024-03-23T08:57:32;24.20;;;6.03;;
4986;SDS011;12674;51.500;7.552;2024-03-23T08:59:34;18.63;;;6.30;;
4986;SDS011;12674;51.500;7.552;2024-03-23T09:01:35;15.97;;;6.03;;
4986;SDS011;12674;51.500;7.552;2024-03-23T09:03:38;12.60;;;5.73;;
4986;SDS011;12674;51.500;7.552;2024-03-23T09:05:39;25.10;;;5.70;;
4986;SDS011;12674;51.500;7.552;2024-03-23T09:07:41;16.70;;;5.47;;
4986;SDS011;12674;51.500;7.552;2024-03-23T09:09:42;17.90;;;5.17;;
4986;SDS011;12674;51.500;7.552;2024-03-23T09:11:46;14.57;;;4.20;;
4986;SDS011;12674;51.500;7.552;2024-03-23T09:13:47;11.07;;;4.40;;
4986;SDS011;12674;51.500;7.552;2024-03-23T09:15:50;12.53;;;4.50;;
4986;SDS011;12674;51.500;7.552;2024-03-23T09:17:52;13.87;;;4.20;;
4986;SDS011;12674;51.500;7.552;2024-03-23T09:19:54;19.63;;;5.00;;
4986;SDS011;12674;51.500;7.552;2024-03-23T09:21:55;10.93;;;3.70;;
4986;SDS011;12674;51.500;7.552;2024-03-23T09:23:57;20.77;;;4.20;;
4986;SDS011;12674;51.500;7.552;2024-03-23T09:25:59;13.10;;;3.77;;
4986;SDS011;12674;51.500;7.552;2024-03-23T09:28:06;13.57;;;4.30;;
4986;SDS011;12674;51.500;7.552;2024-03-23T09:30:09;18.67;;;4.10;;
4986;SDS011;12674;51.500;7.552;2024-03-23T09:32:12;9.80;;;3.73;;
4986;SDS011;12674;51.500;7.552;2024-03-23T09:34:13;15.23;;;4.47;;
4986;SDS011;12674;51.500;7.552;2024-03-23T09:36:15;20.27;;;5.30;;
4986;SDS011;12674;51.500;7.552;2024-03-23T09:38:16;17.50;;;4.20;;
4986;SDS011;12674;51.500;7.552;2024-03-23T09:40:18;14.10;;;3.63;;
4986;SDS011;12674;51.500;7.552;2024-03-23T09:42:20;13.80;;;3.27;;
4986;SDS011;12674;51.500;7.552;2024-03-23T09:44:23;16.80;;;3.63;;
4986;SDS011;12674;51.500;7.552;2024-03-23T09:46:26;11.20;;;3.43;;
4986;SDS011;12674;51.500;7.552;2024-03-23T09:48:29;13.50;;;3.03;;
4986;SDS011;12674;51.500;7.552;2024-03-23T09:50:30;9.67;;;2.93;;
4986;SDS011;12674;51.500;7.552;2024-03-23T09:52:33;5.67;;;2.17;;
4986;SDS011;12674;51.500;7.552;2024-03-23T09:54:35;10.47;;;2.40;;
4986;SDS011;12674;51.500;7.552;2024-03-23T09:56:37;11.33;;;2.57;;
4986;SDS011;12674;51.500;7.552;2024-03-23T09:58:39;11.23;;;3.23;;
4986;SDS011;12674;51.500;7.552;2024-03-23T10:00:42;6.00;;;2.40;;
4986;SDS011;12674;51.500;7.552;2024-03-23T10:02:45;11.13;;;2.07;;
4986;SDS011;12674;51.500;7.552;2024-03-23T10:04:47;4.47;;;1.93;;
4986;SDS011;12674;51.500;7.552;2024-03-23T10:06:49;3.90;;;1.50;;
4986;SDS011;12674;51.500;7.552;2024-03-23T10:08:52;5.87;;;2.10;;
4986;SDS011;12674;51.500;7.552;2024-03-23T10:10:55;8.97;;;2.37;;
4986;SDS011;12674;51.500;7.552;2024-03-23T10:12:57;13.30;;;2.00;;
4986;SDS011;12674;51.500;7.552;2024-03-23T10:14:58;7.53;;;2.30;;
4986;SDS011;12674;51.500;7.552;2024-03-23T10:17:11;10.37;;;2.57;;
4986;SDS011;12674;51.500;7.552;2024-03-23T10:19:14;8.83;;;2.37;;
4986;SDS011;12674;51.500;7.552;2024-03-23T10:21:32;7.13;;;2.50;;
4986;SDS011;12674;51.500;7.552;2024-03-23T10:23:33;9.17;;;2.97;;
4986;SDS011;12674;51.500;7.552;2024-03-23T10:25:35;9.30;;;3.23;;
4986;SDS011;12674;51.500;7.552;2024-03-23T10:27:36;11.80;;;3.37;;
4986;SDS011;12674;51.500;7.552;2024-03-23T10:29:38;4.83;;;1.90;;
4986;SDS011;12674;51.500;7.552;2024-03-23T10:31:39;15.13;;;3.30;;
4986;SDS011;12674;51.500;7.552;2024-03-23T10:33:45;7.17;;;2.37;;
4986;SDS011;12674;51.500;7.552;2024-03-23T10:35:46;9.40;;;3.67;;
4986;SDS011;12674;51.500;7.552;2024-03-23T10:37:49;8.70;;;2.87;;
4986;SDS011;12674;51.500;7.552;2024-03-23T10:39:50;15.50;;;2.70;;
4986;SDS011;12674;51.500;7.552;2024-03-23T10:41:52;11.93;;;2.70;;
4986;SDS011;12674;51.500;7.552;2024-03-23T10:43:54;13.43;;;2.67;;
4986;SDS011;12674;51.500;7.552;2024-03-23T10:45:57;8.87;;;2.80;;
4986;SDS011;12674;51.500;7.552;2024-03-23T10:47:58;8.50;;;2.60;;
4986;SDS011;12674;51.500;7.552;2024-03-23T10:50:02;9.07;;;3.00;;
4986;SDS011;12674;51.500;7.552;2024-03-23T10:52:04;13.90;;;2.90;;
4986;SDS011;12674;51.500;7.552;2024-03-23T10:54:07;8.93;;;2.40;;
4986;SDS011;12674;51.500;7.552;2024-03-23T10:56:13;8.77;;;2.10;;
4986;SDS011;12674;51.500;7.552;2024-03-23T10:58:16;11.63;;;2.97;;
4986;SDS011;12674;51.500;7.552;2024-03-23T11:00:18;10.13;;;2.00;;
4986;SDS011;12674;51.500;7.552;2024-03-23T11:02:21;8.10;;;1.80;;
4986;SDS011;12674;51.500;7.552;2024-03-23T11:04:29;6.40;;;2.57;;
4986;SDS011;12674;51.500;7.552;2024-03-23T11:06:36;4.67;;;2.10;;
4986;SDS011;12674;51.500;7.552;2024-03-23T11:08:39;7.37;;;2.30;;
4986;SDS011;12674;51.500;7.552;2024-03-23T11:10:42;12.53;;;2.23;;
4986;SDS011;12674;51.500;7.552;2024-03-23T11:12:44;7.03;;;2.27;;
4986;SDS011;12674;51.500;7.552;2024-03-23T11:14:45;6.75;;;1.65;;
4986;SDS011;12674;51.500;7.552;2024-03-23T11:16:47;11.63;;;2.80;;
4986;SDS011;12674;51.500;7.552;2024-03-23T11:21:54;8.83;;;2.00;;
4986;SDS011;12674;51.500;7.552;2024-03-23T11:26:15;6.33;;;1.63;;
4986;SDS011;12674;51.500;7.552;2024-03-23T11:28:17;3.13;;;0.93;;
4986;SDS011;12674;51.500;7.552;2024-03-23T11:30:18;3.10;;;0.90;;
4986;SDS011;12674;51.500;7.552;2024-03-23T11:32:22;4.97;;;1.10;;
4986;SDS011;12674;51.500;7.552;2024-03-23T11:34:23;3.57;;;1.10;;
4986;SDS011;12674;51.500;7.552;2024-03-23T11:36:25;4.67;;;0.90;;
4986;SDS011;12674;51.500;7.552;2024-03-23T11:38:27;0.97;;;0.60;;
4986;SDS011;12674;51.500;7.552;2024-03-23T11:40:29;2.03;;;0.90;;
4986;SDS011;12674;51.500;7.552;2024-03-23T11:42:31;2.63;;;0.60;;
4986;SDS011;12674;51.500;7.552;2024-03-23T11:44:33;2.70;;;0.90;;
4986;SDS011;12674;51.500;7.552;2024-03-23T11:46:34;3.97;;;1.03;;
4986;SDS011;12674;51.500;7.552;2024-03-23T11:48:36;1.70;;;0.80;;
4986;SDS011;12674;51.500;7.552;2024-03-23T11:50:38;1.80;;;0.73;;
4986;SDS011;12674;51.500;7.552;2024-03-23T11:52:42;4.23;;;0.90;;
4986;SDS011;12674;51.500;7.552;2024-03-23T11:54:44;1.53;;;1.03;;
4986;SDS011;12674;51.500;7.552;2024-03-23T11:56:54;3.17;;;1.00;;
4986;SDS011;12674;51.500;7.552;2024-03-23T12:02:13;3.77;;;1.20;;
4986;SDS011;12674;51.500;7.552;2024-03-23T12:04:24;4.43;;;0.97;;
4986;SDS011;12674;51.500;7.552;2024-03-23T12:06:26;7.03;;;1.23;;
4986;SDS011;12674;51.500;7.552;2024-03-23T12:08:29;6.80;;;1.80;;
4986;SDS011;12674;51.500;7.552;2024-03-23T12:10:32;5.70;;;1.43;;
4986;SDS011;12674;51.500;7.552;2024-03-23T12:12:34;4.53;;;1.30;;
4986;SDS011;12674;51.500;7.552;2024-03-23T12:14:35;7.10;;;1.27;;
4986;SDS011;12674;51.500;7.552;2024-03-23T12:16:37;5.40;;;1.30;;
4986;SDS011;12674;51.500;7.552;2024-03-23T12:18:38;5.77;;;1.63;;
4986;SDS011;12674;51.500;7.552;2024-03-23T12:20:41;6.07;;;1.63;;
4986;SDS011;12674;51.500;7.552;2024-03-23T12:22:42;6.73;;;1.67;;
4986;SDS011;12674;51.500;7.552;2024-03-23T12:24:47;4.77;;;1.20;;
4986;SDS011;12674;51.500;7.552;2024-03-23T12:26:50;6.00;;;1.40;;
4986;SDS011;12674;51.500;7.552;2024-03-23T12:28:52;6.13;;;2.33;;
4986;SDS011;12674;51.500;7.552;2024-03-23T12:30:53;3.63;;;1.50;;
4986;SDS011;12674;51.500;7.552;2024-03-23T12:32:55;3.70;;;1.40;;
4986;SDS011;12674;51.500;7.552;2024-03-23T12:34:57;9.30;;;2.10;;
4986;SDS011;12674;51.500;7.552;2024-03-23T12:36:59;7.07;;;1.60;;
4986;SDS011;12674;51.500;7.552;2024-03-23T12:39:00;8.20;;;1.70;;
4986;SDS011;12674;51.500;7.552;2024-03-23T12:41:02;3.70;;;1.57;;
4986;SDS011;12674;51.500;7.552;2024-03-23T12:43:06;5.70;;;2.13;;
4986;SDS011;12674;51.500;7.552;2024-03-23T12:45:09;8.67;;;2.80;;
4986;SDS011;12674;51.500;7.552;2024-03-23T12:47:10;7.00;;;1.53;;
4986;SDS011;12674;51.500;7.552;2024-03-23T12:49:11;3.23;;;1.40;;
4986;SDS011;12674;51.500;7.552;2024-03-23T12:51:13;3.07;;;1.30;;
4986;SDS011;12674;51.500;7.552;2024-03-23T12:53:14;3.40;;;1.50;;
4986;SDS011;12674;51.500;7.552;2024-03-23T12:55:17;4.03;;;1.40;;
4986;SDS011;12674;51.500;7.552;2024-03-23T12:57:18;3.63;;;1.43;;
4986;SDS011;12674;51.500;7.552;2024-03-23T12:59:22;4.30;;;1.53;;
4986;SDS011;12674;51.500;7.552;2024-03-23T13:01:23;5.13;;;1.50;;
4986;SDS011;12674;51.500;7.552;2024-03-23T13:03:25;3.23;;;1.23;;
4986;SDS011;12674;51.500;7.552;2024-03-23T13:05:27;3.37;;;1.20;;
4986;SDS011;12674;51.500;7.552;2024-03-23T13:07:28;4.03;;;1.40;;
4986;SDS011;12674;51.500;7.552;2024-03-23T13:09:29;6.97;;;1.50;;
4986;SDS011;12674;51.500;7.552;2024-03-23T13:11:32;4.70;;;1.33;;
4986;SDS011;12674;51.500;7.552;2024-03-23T13:13:33;10.00;;;1.80;;
4986;SDS011;12674;51.500;7.552;2024-03-23T13:15:36;4.07;;;1.50;;
4986;SDS011;12674;51.500;7.552;2024-03-23T13:17:37;4.60;;;1.00;;
4986;SDS011;12674;51.500;7.552;2024-03-23T13:19:41;3.37;;;1.30;;
4986;SDS011;12674;51.500;7.552;2024-03-23T13:21:42;2.30;;;1.03;;